sensor_id;sensor_type;location;lat;lon;timestamp;temperature;humidity
75500;DHT22;64076;51.466;7.260;2023-08-30T00:00:11;26.40;43.40
75500;DHT22;64076;51.466;7.260;2023-08-30T00:02:37;26.30;43.40
75500;DHT22;64076;51.466;7.260;2023-08-30T00:05:03;26.30;43.40
75500;DHT22;64076;51.466;7.260;2023-08-30T00:07:29;26.30;43.40
75500;DHT22;64076;51.466;7.260;2023-08-30T00:09:55;26.30;43.40
75500;DHT22;64076;51.466;7.260;2023-08-30T00:12:21;26.30;43.40
75500;DHT22;64076;51.466;7.260;2023-08-30T00:14:47;26.30;43.40
75500;DHT22;64076;51.466;7.260;2023-08-30T00:17:12;26.30;43.40
75500;DHT22;64076;51.466;7.260;2023-08-30T00:19:38;26.30;43.50
75500;DHT22;64076;51.466;7.260;2023-08-30T00:22:04;26.30;43.50
75500;DHT22;64076;51.466;7.260;2023-08-30T00:24:33;26.30;43.50
75500;DHT22;64076;51.466;7.260;2023-08-30T00:26:58;26.30;43.50
75500;DHT22;64076;51.466;7.260;2023-08-30T00:29:24;26.30;43.50
75500;DHT22;64076;51.466;7.260;2023-08-30T00:31:49;26.30;43.50
75500;DHT22;64076;51.466;7.260;2023-08-30T00:34:15;26.30;43.50
75500;DHT22;64076;51.466;7.260;2023-08-30T00:36:40;26.30;43.50
75500;DHT22;64076;51.466;7.260;2023-08-30T00:39:06;26.30;43.60
75500;DHT22;64076;51.466;7.260;2023-08-30T00:41:32;26.30;43.60
75500;DHT22;64076;51.466;7.260;2023-08-30T00:43:58;26.30;43.60
75500;DHT22;64076;51.466;7.260;2023-08-30T00:46:24;26.30;43.60
75500;DHT22;64076;51.466;7.260;2023-08-30T00:48:49;26.30;43.60
75500;DHT22;64076;51.466;7.260;2023-08-30T00:51:15;26.30;43.50
75500;DHT22;64076;51.466;7.260;2023-08-30T00:53:40;26.30;43.60
75500;DHT22;64076;51.466;7.260;2023-08-30T00:56:06;26.30;43.60
75500;DHT22;64076;51.466;7.260;2023-08-30T00:58:32;26.30;43.60
75500;DHT22;64076;51.466;7.260;2023-08-30T01:00:58;26.20;43.60
75500;DHT22;64076;51.466;7.260;2023-08-30T01:03:24;26.20;43.60
75500;DHT22;64076;51.466;7.260;2023-08-30T01:05:49;26.30;43.60
75500;DHT22;64076;51.466;7.260;2023-08-30T01:08:15;26.20;43.60
75500;DHT22;64076;51.466;7.260;2023-08-30T01:10:58;26.20;43.60
75500;DHT22;64076;51.466;7.260;2023-08-30T01:13:26;26.20;43.60
75500;DHT22;64076;51.466;7.260;2023-08-30T01:15:56;26.30;43.60
75500;DHT22;64076;51.466;7.260;2023-08-30T01:18:26;26.20;43.60
75500;DHT22;64076;51.466;7.260;2023-08-30T01:20:52;26.20;43.60
75500;DHT22;64076;51.466;7.260;2023-08-30T01:23:46;26.30;43.60
75500;DHT22;64076;51.466;7.260;2023-08-30T01:29:03;26.20;43.60
75500;DHT22;64076;51.466;7.260;2023-08-30T01:31:32;26.20;43.60
75500;DHT22;64076;51.466;7.260;2023-08-30T01:33:59;26.20;43.60
75500;DHT22;64076;51.466;7.260;2023-08-30T01:36:25;26.20;43.60
75500;DHT22;64076;51.466;7.260;2023-08-30T01:38:51;26.20;43.60
75500;DHT22;64076;51.466;7.260;2023-08-30T01:41:18;26.20;43.50
75500;DHT22;64076;51.466;7.260;2023-08-30T01:43:45;26.20;43.60
75500;DHT22;64076;51.466;7.260;2023-08-30T01:46:12;26.20;43.60
75500;DHT22;64076;51.466;7.260;2023-08-30T01:48:39;26.20;43.60
75500;DHT22;64076;51.466;7.260;2023-08-30T01:51:06;26.20;43.60
75500;DHT22;64076;51.466;7.260;2023-08-30T01:53:32;26.20;43.50
75500;DHT22;64076;51.466;7.260;2023-08-30T01:55:58;26.20;43.60
75500;DHT22;64076;51.466;7.260;2023-08-30T01:58:24;26.20;43.50
75500;DHT22;64076;51.466;7.260;2023-08-30T02:00:50;26.20;43.50
75500;DHT22;64076;51.466;7.260;2023-08-30T02:03:15;26.20;43.50
75500;DHT22;64076;51.466;7.260;2023-08-30T02:06:09;26.20;43.60
75500;DHT22;64076;51.466;7.260;2023-08-30T02:08:41;26.20;43.60
75500;DHT22;64076;51.466;7.260;2023-08-30T02:11:17;26.10;43.50
75500;DHT22;64076;51.466;7.260;2023-08-30T02:13:44;26.20;43.60
75500;DHT22;64076;51.466;7.260;2023-08-30T02:16:13;26.10;43.50
75500;DHT22;64076;51.466;7.260;2023-08-30T02:18:38;26.10;43.60
75500;DHT22;64076;51.466;7.260;2023-08-30T02:21:05;26.10;43.60
75500;DHT22;64076;51.466;7.260;2023-08-30T02:23:30;26.10;43.60
75500;DHT22;64076;51.466;7.260;2023-08-30T02:25:56;26.10;43.60
75500;DHT22;64076;51.466;7.260;2023-08-30T02:28:21;26.10;43.50
75500;DHT22;64076;51.466;7.260;2023-08-30T02:30:47;26.10;43.60
75500;DHT22;64076;51.466;7.260;2023-08-30T02:33:13;26.10;43.60
75500;DHT22;64076;51.466;7.260;2023-08-30T02:35:39;26.10;43.60
75500;DHT22;64076;51.466;7.260;2023-08-30T02:38:04;26.10;43.60
75500;DHT22;64076;51.466;7.260;2023-08-30T02:40:31;26.10;43.50
75500;DHT22;64076;51.466;7.260;2023-08-30T02:42:57;26.10;43.60
75500;DHT22;64076;51.466;7.260;2023-08-30T02:45:22;26.10;43.60
75500;DHT22;64076;51.466;7.260;2023-08-30T02:47:48;26.10;43.60
75500;DHT22;64076;51.466;7.260;2023-08-30T02:50:14;26.10;43.60
75500;DHT22;64076;51.466;7.260;2023-08-30T02:52:39;26.10;43.60
75500;DHT22;64076;51.466;7.260;2023-08-30T02:55:05;26.10;43.60
75500;DHT22;64076;51.466;7.260;2023-08-30T02:57:31;26.10;43.60
75500;DHT22;64076;51.466;7.260;2023-08-30T02:59:56;26.10;43.60
75500;DHT22;64076;51.466;7.260;2023-08-30T03:02:22;26.10;43.60
75500;DHT22;64076;51.466;7.260;2023-08-30T03:04:47;26.10;43.60
75500;DHT22;64076;51.466;7.260;2023-08-30T03:07:13;26.10;43.60
75500;DHT22;64076;51.466;7.260;2023-08-30T03:09:38;26.10;43.60
75500;DHT22;64076;51.466;7.260;2023-08-30T03:12:04;26.10;43.60
75500;DHT22;64076;51.466;7.260;2023-08-30T03:14:30;26.10;43.60
75500;DHT22;64076;51.466;7.260;2023-08-30T03:16:55;26.10;43.60
75500;DHT22;64076;51.466;7.260;2023-08-30T03:19:21;26.10;43.60
75500;DHT22;64076;51.466;7.260;2023-08-30T03:21:46;26.10;43.60
75500;DHT22;64076;51.466;7.260;2023-08-30T03:24:12;26.10;43.60
75500;DHT22;64076;51.466;7.260;2023-08-30T03:26:39;26.00;43.60
75500;DHT22;64076;51.466;7.260;2023-08-30T03:29:06;26.10;43.60
75500;DHT22;64076;51.466;7.260;2023-08-30T03:31:31;26.00;43.60
75500;DHT22;64076;51.466;7.260;2023-08-30T03:33:57;26.00;43.60
75500;DHT22;64076;51.466;7.260;2023-08-30T03:36:22;26.00;43.60
75500;DHT22;64076;51.466;7.260;2023-08-30T03:38:48;26.00;43.50
75500;DHT22;64076;51.466;7.260;2023-08-30T03:41:14;26.00;43.50
75500;DHT22;64076;51.466;7.260;2023-08-30T03:43:40;26.00;43.60
75500;DHT22;64076;51.466;7.260;2023-08-30T03:46:05;26.00;43.60
75500;DHT22;64076;51.466;7.260;2023-08-30T03:48:31;26.00;43.60
75500;DHT22;64076;51.466;7.260;2023-08-30T03:50:58;26.00;43.60
75500;DHT22;64076;51.466;7.260;2023-08-30T03:53:23;26.00;43.60
75500;DHT22;64076;51.466;7.260;2023-08-30T03:55:50;26.00;43.60
75500;DHT22;64076;51.466;7.260;2023-08-30T03:58:16;26.00;43.60
75500;DHT22;64076;51.466;7.260;2023-08-30T04:00:41;26.00;43.60
75500;DHT22;64076;51.466;7.260;2023-08-30T04:03:08;26.00;43.50
75500;DHT22;64076;51.466;7.260;2023-08-30T04:05:34;26.00;43.50
75500;DHT22;64076;51.466;7.260;2023-08-30T04:08:05;26.00;43.60
75500;DHT22;64076;51.466;7.260;2023-08-30T04:10:38;26.00;43.60
75500;DHT22;64076;51.466;7.260;2023-08-30T04:13:04;26.00;43.60
75500;DHT22;64076;51.466;7.260;2023-08-30T04:15:35;26.00;43.60
75500;DHT22;64076;51.466;7.260;2023-08-30T04:18:02;25.90;43.60
75500;DHT22;64076;51.466;7.260;2023-08-30T04:20:27;25.90;43.60
75500;DHT22;64076;51.466;7.260;2023-08-30T04:22:53;26.00;43.50
75500;DHT22;64076;51.466;7.260;2023-08-30T04:25:20;25.90;43.60
75500;DHT22;64076;51.466;7.260;2023-08-30T04:27:46;25.90;43.50
75500;DHT22;64076;51.466;7.260;2023-08-30T04:30:12;25.90;43.50
75500;DHT22;64076;51.466;7.260;2023-08-30T04:32:37;26.00;43.50
75500;DHT22;64076;51.466;7.260;2023-08-30T04:35:03;25.90;43.50
75500;DHT22;64076;51.466;7.260;2023-08-30T04:37:32;25.90;43.60
75500;DHT22;64076;51.466;7.260;2023-08-30T04:39:57;25.90;43.60
75500;DHT22;64076;51.466;7.260;2023-08-30T04:42:23;25.90;43.60
75500;DHT22;64076;51.466;7.260;2023-08-30T04:44:48;25.90;43.50
75500;DHT22;64076;51.466;7.260;2023-08-30T04:47:14;25.90;43.60
75500;DHT22;64076;51.466;7.260;2023-08-30T04:49:39;25.90;43.60
75500;DHT22;64076;51.466;7.260;2023-08-30T04:52:05;25.90;43.50
75500;DHT22;64076;51.466;7.260;2023-08-30T04:54:31;25.90;43.50
75500;DHT22;64076;51.466;7.260;2023-08-30T04:56:56;25.90;43.50
75500;DHT22;64076;51.466;7.260;2023-08-30T04:59:22;25.90;43.50
75500;DHT22;64076;51.466;7.260;2023-08-30T05:01:47;25.90;43.50
75500;DHT22;64076;51.466;7.260;2023-08-30T05:04:13;25.90;43.50
75500;DHT22;64076;51.466;7.260;2023-08-30T05:06:39;25.90;43.50
75500;DHT22;64076;51.466;7.260;2023-08-30T05:09:07;25.90;43.50
75500;DHT22;64076;51.466;7.260;2023-08-30T05:11:34;25.90;43.50
75500;DHT22;64076;51.466;7.260;2023-08-30T05:13:59;25.90;43.50
75500;DHT22;64076;51.466;7.260;2023-08-30T05:16:25;25.90;43.50
75500;DHT22;64076;51.466;7.260;2023-08-30T05:18:50;25.90;43.30
75500;DHT22;64076;51.466;7.260;2023-08-30T05:21:16;25.90;43.30
75500;DHT22;64076;51.466;7.260;2023-08-30T05:23:41;25.90;43.30
75500;DHT22;64076;51.466;7.260;2023-08-30T05:26:10;25.90;43.30
75500;DHT22;64076;51.466;7.260;2023-08-30T05:28:39;25.90;43.30
75500;DHT22;64076;51.466;7.260;2023-08-30T05:31:04;25.90;43.30
75500;DHT22;64076;51.466;7.260;2023-08-30T05:33:31;25.90;43.30
75500;DHT22;64076;51.466;7.260;2023-08-30T05:35:56;25.90;43.40
75500;DHT22;64076;51.466;7.260;2023-08-30T05:38:22;25.90;43.50
75500;DHT22;64076;51.466;7.260;2023-08-30T05:40:48;25.90;43.50
75500;DHT22;64076;51.466;7.260;2023-08-30T05:43:13;25.90;43.50
75500;DHT22;64076;51.466;7.260;2023-08-30T05:45:39;25.90;43.60
75500;DHT22;64076;51.466;7.260;2023-08-30T05:48:05;25.90;43.80
75500;DHT22;64076;51.466;7.260;2023-08-30T05:50:31;25.90;43.80
75500;DHT22;64076;51.466;7.260;2023-08-30T05:52:56;25.90;43.80
75500;DHT22;64076;51.466;7.260;2023-08-30T05:55:22;25.90;43.90
75500;DHT22;64076;51.466;7.260;2023-08-30T05:57:47;26.00;43.90
75500;DHT22;64076;51.466;7.260;2023-08-30T06:00:13;25.90;43.90
75500;DHT22;64076;51.466;7.260;2023-08-30T06:02:39;26.00;43.80
75500;DHT22;64076;51.466;7.260;2023-08-30T06:05:05;26.00;43.80
75500;DHT22;64076;51.466;7.260;2023-08-30T06:07:31;26.00;43.80
75500;DHT22;64076;51.466;7.260;2023-08-30T06:09:57;26.00;43.80
75500;DHT22;64076;51.466;7.260;2023-08-30T06:12:22;26.00;43.70
75500;DHT22;64076;51.466;7.260;2023-08-30T06:14:48;26.00;43.70
75500;DHT22;64076;51.466;7.260;2023-08-30T06:17:18;26.10;43.80
75500;DHT22;64076;51.466;7.260;2023-08-30T06:19:44;26.10;43.70
75500;DHT22;64076;51.466;7.260;2023-08-30T06:22:10;26.10;43.70
75500;DHT22;64076;51.466;7.260;2023-08-30T06:24:35;26.10;43.70
75500;DHT22;64076;51.466;7.260;2023-08-30T06:27:01;26.10;43.70
75500;DHT22;64076;51.466;7.260;2023-08-30T06:29:26;26.10;43.70
75500;DHT22;64076;51.466;7.260;2023-08-30T06:31:52;26.20;43.70
75500;DHT22;64076;51.466;7.260;2023-08-30T06:34:18;26.20;43.70
75500;DHT22;64076;51.466;7.260;2023-08-30T06:36:43;26.20;43.60
75500;DHT22;64076;51.466;7.260;2023-08-30T06:39:09;26.20;43.60
75500;DHT22;64076;51.466;7.260;2023-08-30T06:41:34;26.20;43.60
75500;DHT22;64076;51.466;7.260;2023-08-30T06:44:00;26.30;43.60
75500;DHT22;64076;51.466;7.260;2023-08-30T06:46:25;26.30;43.50
75500;DHT22;64076;51.466;7.260;2023-08-30T06:48:51;26.30;43.50
75500;DHT22;64076;51.466;7.260;2023-08-30T06:51:16;26.40;43.50
75500;DHT22;64076;51.466;7.260;2023-08-30T06:53:42;26.40;43.40
75500;DHT22;64076;51.466;7.260;2023-08-30T06:56:07;26.40;43.40
75500;DHT22;64076;51.466;7.260;2023-08-30T06:58:33;26.50;43.40
75500;DHT22;64076;51.466;7.260;2023-08-30T07:00:58;26.50;43.40
75500;DHT22;64076;51.466;7.260;2023-08-30T07:03:24;26.60;43.30
75500;DHT22;64076;51.466;7.260;2023-08-30T07:05:53;26.60;43.20
75500;DHT22;64076;51.466;7.260;2023-08-30T07:08:18;26.60;43.10
75500;DHT22;64076;51.466;7.260;2023-08-30T07:10:44;26.60;43.10
75500;DHT22;64076;51.466;7.260;2023-08-30T07:13:10;26.70;43.20
75500;DHT22;64076;51.466;7.260;2023-08-30T07:15:39;26.70;43.10
75500;DHT22;64076;51.466;7.260;2023-08-30T07:18:05;26.60;43.10
75500;DHT22;64076;51.466;7.260;2023-08-30T07:20:31;26.60;43.10
75500;DHT22;64076;51.466;7.260;2023-08-30T07:22:57;26.60;43.10
75500;DHT22;64076;51.466;7.260;2023-08-30T07:25:23;26.60;43.10
75500;DHT22;64076;51.466;7.260;2023-08-30T07:27:49;26.60;43.10
75500;DHT22;64076;51.466;7.260;2023-08-30T07:30:15;26.60;43.20
75500;DHT22;64076;51.466;7.260;2023-08-30T07:32:40;26.60;43.20
75500;DHT22;64076;51.466;7.260;2023-08-30T07:35:06;26.60;43.20
75500;DHT22;64076;51.466;7.260;2023-08-30T07:37:32;26.60;43.30
75500;DHT22;64076;51.466;7.260;2023-08-30T07:39:57;26.50;43.30
75500;DHT22;64076;51.466;7.260;2023-08-30T07:42:23;26.50;43.30
75500;DHT22;64076;51.466;7.260;2023-08-30T07:44:49;26.50;43.40
75500;DHT22;64076;51.466;7.260;2023-08-30T07:47:15;26.50;43.30
75500;DHT22;64076;51.466;7.260;2023-08-30T07:49:41;26.50;43.20
75500;DHT22;64076;51.466;7.260;2023-08-30T07:52:07;26.50;43.10
75500;DHT22;64076;51.466;7.260;2023-08-30T07:54:36;26.50;43.00
75500;DHT22;64076;51.466;7.260;2023-08-30T07:57:03;26.50;43.00
75500;DHT22;64076;51.466;7.260;2023-08-30T07:59:29;26.50;43.00
75500;DHT22;64076;51.466;7.260;2023-08-30T08:01:55;26.50;43.00
75500;DHT22;64076;51.466;7.260;2023-08-30T08:04:21;26.50;42.80
75500;DHT22;64076;51.466;7.260;2023-08-30T08:06:47;26.50;42.70
75500;DHT22;64076;51.466;7.260;2023-08-30T08:09:12;26.50;42.60
75500;DHT22;64076;51.466;7.260;2023-08-30T08:11:38;26.50;42.50
75500;DHT22;64076;51.466;7.260;2023-08-30T08:14:11;26.50;42.50
75500;DHT22;64076;51.466;7.260;2023-08-30T08:16:37;26.50;42.40
75500;DHT22;64076;51.466;7.260;2023-08-30T08:19:03;26.50;42.20
75500;DHT22;64076;51.466;7.260;2023-08-30T08:21:28;26.60;42.20
75500;DHT22;64076;51.466;7.260;2023-08-30T08:23:54;26.60;42.00
75500;DHT22;64076;51.466;7.260;2023-08-30T08:43:28;26.60;42.00
75500;DHT22;64076;51.466;7.260;2023-08-30T08:46:01;26.80;41.40
75500;DHT22;64076;51.466;7.260;2023-08-30T08:48:28;26.80;41.40
75500;DHT22;64076;51.466;7.260;2023-08-30T08:58:14;26.80;41.30
75500;DHT22;64076;51.466;7.260;2023-08-30T09:00:42;26.80;40.90
75500;DHT22;64076;51.466;7.260;2023-08-30T09:03:08;26.80;40.80
75500;DHT22;64076;51.466;7.260;2023-08-30T09:05:37;26.90;40.80
75500;DHT22;64076;51.466;7.260;2023-08-30T09:08:04;26.90;40.70
75500;DHT22;64076;51.466;7.260;2023-08-30T09:10:34;26.90;40.70
75500;DHT22;64076;51.466;7.260;2023-08-30T09:13:00;26.90;40.70
75500;DHT22;64076;51.466;7.260;2023-08-30T09:15:35;26.90;40.70
75500;DHT22;64076;51.466;7.260;2023-08-30T09:18:04;26.90;40.50
75500;DHT22;64076;51.466;7.260;2023-08-30T09:20:29;26.90;40.50
75500;DHT22;64076;51.466;7.260;2023-08-30T09:22:55;27.00;40.50
75500;DHT22;64076;51.466;7.260;2023-08-30T09:25:27;27.00;40.50
75500;DHT22;64076;51.466;7.260;2023-08-30T09:28:00;27.00;40.50
75500;DHT22;64076;51.466;7.260;2023-08-30T09:30:25;27.00;40.40
75500;DHT22;64076;51.466;7.260;2023-08-30T09:32:51;27.00;40.40
75500;DHT22;64076;51.466;7.260;2023-08-30T09:35:17;27.00;40.40
75500;DHT22;64076;51.466;7.260;2023-08-30T09:37:46;27.00;40.40
75500;DHT22;64076;51.466;7.260;2023-08-30T09:40:17;27.10;40.30
75500;DHT22;64076;51.466;7.260;2023-08-30T09:42:43;27.10;40.30
75500;DHT22;64076;51.466;7.260;2023-08-30T09:45:24;27.10;40.30
75500;DHT22;64076;51.466;7.260;2023-08-30T09:47:50;27.10;40.40
75500;DHT22;64076;51.466;7.260;2023-08-30T09:50:20;27.10;40.50
75500;DHT22;64076;51.466;7.260;2023-08-30T09:52:52;27.20;40.40
75500;DHT22;64076;51.466;7.260;2023-08-30T09:55:18;27.20;40.40
75500;DHT22;64076;51.466;7.260;2023-08-30T09:57:45;27.20;40.40
75500;DHT22;64076;51.466;7.260;2023-08-30T10:00:11;27.20;40.50
75500;DHT22;64076;51.466;7.260;2023-08-30T10:02:43;27.20;40.60
75500;DHT22;64076;51.466;7.260;2023-08-30T10:05:10;27.20;40.70
75500;DHT22;64076;51.466;7.260;2023-08-30T10:07:41;27.20;40.80
75500;DHT22;64076;51.466;7.260;2023-08-30T10:10:07;27.20;40.90
75500;DHT22;64076;51.466;7.260;2023-08-30T10:12:33;27.20;40.80
75500;DHT22;64076;51.466;7.260;2023-08-30T10:14:59;27.20;40.70
75500;DHT22;64076;51.466;7.260;2023-08-30T10:17:28;27.20;40.80
75500;DHT22;64076;51.466;7.260;2023-08-30T10:19:55;27.20;40.90
75500;DHT22;64076;51.466;7.260;2023-08-30T10:22:22;27.10;41.00
75500;DHT22;64076;51.466;7.260;2023-08-30T10:24:53;27.10;41.10
75500;DHT22;64076;51.466;7.260;2023-08-30T10:27:20;27.10;41.40
75500;DHT22;64076;51.466;7.260;2023-08-30T10:29:48;27.10;41.70
75500;DHT22;64076;51.466;7.260;2023-08-30T10:32:19;27.10;42.20
75500;DHT22;64076;51.466;7.260;2023-08-30T10:34:48;27.10;42.50
75500;DHT22;64076;51.466;7.260;2023-08-30T10:37:15;27.10;42.80
75500;DHT22;64076;51.466;7.260;2023-08-30T10:39:41;27.10;43.00
75500;DHT22;64076;51.466;7.260;2023-08-30T10:42:14;27.10;43.20
75500;DHT22;64076;51.466;7.260;2023-08-30T10:45:07;27.10;43.40
75500;DHT22;64076;51.466;7.260;2023-08-30T10:47:35;27.00;43.50
75500;DHT22;64076;51.466;7.260;2023-08-30T10:50:12;27.00;43.70
75500;DHT22;64076;51.466;7.260;2023-08-30T10:52:38;27.10;43.70
75500;DHT22;64076;51.466;7.260;2023-08-30T10:55:11;27.10;43.90
75500;DHT22;64076;51.466;7.260;2023-08-30T10:57:37;27.10;44.00
75500;DHT22;64076;51.466;7.260;2023-08-30T11:00:07;27.10;44.20
75500;DHT22;64076;51.466;7.260;2023-08-30T11:02:35;27.10;44.30
75500;DHT22;64076;51.466;7.260;2023-08-30T11:05:01;27.10;44.40
75500;DHT22;64076;51.466;7.260;2023-08-30T11:07:29;27.10;44.60
75500;DHT22;64076;51.466;7.260;2023-08-30T11:09:55;27.10;44.60
75500;DHT22;64076;51.466;7.260;2023-08-30T11:12:20;27.10;44.70
75500;DHT22;64076;51.466;7.260;2023-08-30T11:14:52;27.10;44.80
75500;DHT22;64076;51.466;7.260;2023-08-30T11:17:18;27.10;44.90
75500;DHT22;64076;51.466;7.260;2023-08-30T11:19:44;27.10;45.00
75500;DHT22;64076;51.466;7.260;2023-08-30T11:22:10;27.10;45.00
75500;DHT22;64076;51.466;7.260;2023-08-30T11:24:35;27.10;45.30
75500;DHT22;64076;51.466;7.260;2023-08-30T11:27:01;27.10;45.20
75500;DHT22;64076;51.466;7.260;2023-08-30T11:29:27;27.00;45.40
75500;DHT22;64076;51.466;7.260;2023-08-30T11:31:53;27.10;45.40
75500;DHT22;64076;51.466;7.260;2023-08-30T11:34:21;27.10;45.50
75500;DHT22;64076;51.466;7.260;2023-08-30T11:36:48;27.10;45.60
75500;DHT22;64076;51.466;7.260;2023-08-30T11:39:16;27.10;45.70
75500;DHT22;64076;51.466;7.260;2023-08-30T11:41:42;27.10;45.60
75500;DHT22;64076;51.466;7.260;2023-08-30T11:44:07;27.10;45.60
75500;DHT22;64076;51.466;7.260;2023-08-30T11:46:33;27.10;45.60
75500;DHT22;64076;51.466;7.260;2023-08-30T11:48:58;27.10;45.70
75500;DHT22;64076;51.466;7.260;2023-08-30T11:51:25;27.10;45.80
75500;DHT22;64076;51.466;7.260;2023-08-30T11:53:51;27.10;45.80
75500;DHT22;64076;51.466;7.260;2023-08-30T11:56:17;27.00;45.90
75500;DHT22;64076;51.466;7.260;2023-08-30T11:58:44;27.00;46.00
75500;DHT22;64076;51.466;7.260;2023-08-30T12:01:10;27.00;46.00
75500;DHT22;64076;51.466;7.260;2023-08-30T12:03:36;27.00;46.20
75500;DHT22;64076;51.466;7.260;2023-08-30T12:06:02;27.00;46.20
75500;DHT22;64076;51.466;7.260;2023-08-30T12:08:30;27.00;46.20
75500;DHT22;64076;51.466;7.260;2023-08-30T12:10:56;27.00;46.20
75500;DHT22;64076;51.466;7.260;2023-08-30T12:13:25;27.00;46.20
75500;DHT22;64076;51.466;7.260;2023-08-30T12:15:55;27.00;46.20
75500;DHT22;64076;51.466;7.260;2023-08-30T12:18:22;27.00;46.30
75500;DHT22;64076;51.466;7.260;2023-08-30T12:20:57;27.00;46.30
75500;DHT22;64076;51.466;7.260;2023-08-30T12:23:27;27.00;46.30
75500;DHT22;64076;51.466;7.260;2023-08-30T12:25:57;27.00;46.30
75500;DHT22;64076;51.466;7.260;2023-08-30T12:28:23;27.00;46.40
75500;DHT22;64076;51.466;7.260;2023-08-30T12:30:48;27.00;46.40
75500;DHT22;64076;51.466;7.260;2023-08-30T12:33:16;27.00;46.40
75500;DHT22;64076;51.466;7.260;2023-08-30T12:35:42;26.90;46.60
75500;DHT22;64076;51.466;7.260;2023-08-30T12:38:08;26.90;46.60
75500;DHT22;64076;51.466;7.260;2023-08-30T12:40:35;26.90;46.70
75500;DHT22;64076;51.466;7.260;2023-08-30T12:43:00;26.90;46.70
75500;DHT22;64076;51.466;7.260;2023-08-30T12:45:26;26.90;46.60
75500;DHT22;64076;51.466;7.260;2023-08-30T12:47:51;26.90;46.50
75500;DHT22;64076;51.466;7.260;2023-08-30T12:50:17;26.90;46.50
75500;DHT22;64076;51.466;7.260;2023-08-30T12:52:42;26.90;46.50
75500;DHT22;64076;51.466;7.260;2023-08-30T12:55:08;26.90;46.40
75500;DHT22;64076;51.466;7.260;2023-08-30T12:57:34;26.90;46.40
75500;DHT22;64076;51.466;7.260;2023-08-30T12:59:59;26.90;46.40
75500;DHT22;64076;51.466;7.260;2023-08-30T13:02:25;26.90;46.60
75500;DHT22;64076;51.466;7.260;2023-08-30T13:04:50;26.90;46.70
75500;DHT22;64076;51.466;7.260;2023-08-30T13:07:16;26.90;46.60
75500;DHT22;64076;51.466;7.260;2023-08-30T13:09:42;27.00;46.60
75500;DHT22;64076;51.466;7.260;2023-08-30T13:12:08;26.90;46.60
75500;DHT22;64076;51.466;7.260;2023-08-30T13:14:33;26.90;46.70
75500;DHT22;64076;51.466;7.260;2023-08-30T13:16:59;26.90;46.70
75500;DHT22;64076;51.466;7.260;2023-08-30T13:19:24;26.90;46.60
75500;DHT22;64076;51.466;7.260;2023-08-30T13:21:50;26.90;46.70
75500;DHT22;64076;51.466;7.260;2023-08-30T13:24:15;26.90;46.70
75500;DHT22;64076;51.466;7.260;2023-08-30T13:26:41;27.00;46.80
75500;DHT22;64076;51.466;7.260;2023-08-30T13:29:07;27.00;46.80
75500;DHT22;64076;51.466;7.260;2023-08-30T13:31:32;27.00;46.80
75500;DHT22;64076;51.466;7.260;2023-08-30T13:33:58;27.00;46.80
75500;DHT22;64076;51.466;7.260;2023-08-30T13:36:24;27.00;46.70
75500;DHT22;64076;51.466;7.260;2023-08-30T13:38:49;27.00;46.70
75500;DHT22;64076;51.466;7.260;2023-08-30T13:41:15;27.00;46.80
75500;DHT22;64076;51.466;7.260;2023-08-30T13:43:43;27.00;46.80
75500;DHT22;64076;51.466;7.260;2023-08-30T13:46:08;27.00;46.80
75500;DHT22;64076;51.466;7.260;2023-08-30T13:48:34;27.00;46.70
75500;DHT22;64076;51.466;7.260;2023-08-30T13:50:59;27.00;46.80
75500;DHT22;64076;51.466;7.260;2023-08-30T13:53:25;27.00;46.70
75500;DHT22;64076;51.466;7.260;2023-08-30T13:55:51;27.00;46.60
75500;DHT22;64076;51.466;7.260;2023-08-30T13:58:17;27.00;46.60
75500;DHT22;64076;51.466;7.260;2023-08-30T14:00:44;27.00;46.70
75500;DHT22;64076;51.466;7.260;2023-08-30T14:03:09;27.00;46.60
75500;DHT22;64076;51.466;7.260;2023-08-30T14:05:35;27.00;46.60
75500;DHT22;64076;51.466;7.260;2023-08-30T14:08:00;27.00;46.60
75500;DHT22;64076;51.466;7.260;2023-08-30T14:10:26;26.90;46.60
75500;DHT22;64076;51.466;7.260;2023-08-30T14:12:51;26.90;46.70
75500;DHT22;64076;51.466;7.260;2023-08-30T14:15:17;26.90;46.70
75500;DHT22;64076;51.466;7.260;2023-08-30T14:17:43;26.90;46.70
75500;DHT22;64076;51.466;7.260;2023-08-30T14:20:09;26.80;46.70
75500;DHT22;64076;51.466;7.260;2023-08-30T14:22:34;26.80;46.70
75500;DHT22;64076;51.466;7.260;2023-08-30T14:25:02;26.80;46.80
75500;DHT22;64076;51.466;7.260;2023-08-30T14:27:28;26.80;46.80
75500;DHT22;64076;51.466;7.260;2023-08-30T14:29:53;26.80;46.80
75500;DHT22;64076;51.466;7.260;2023-08-30T14:32:19;26.80;46.80
75500;DHT22;64076;51.466;7.260;2023-08-30T14:34:44;26.80;46.70
75500;DHT22;64076;51.466;7.260;2023-08-30T14:37:10;26.70;46.80
75500;DHT22;64076;51.466;7.260;2023-08-30T14:39:36;26.70;46.80
75500;DHT22;64076;51.466;7.260;2023-08-30T14:42:02;26.70;46.80
75500;DHT22;64076;51.466;7.260;2023-08-30T14:44:27;26.70;46.80
75500;DHT22;64076;51.466;7.260;2023-08-30T14:46:53;26.70;46.80
75500;DHT22;64076;51.466;7.260;2023-08-30T14:49:19;26.70;46.80
75500;DHT22;64076;51.466;7.260;2023-08-30T14:51:44;26.70;46.80
75500;DHT22;64076;51.466;7.260;2023-08-30T14:54:12;26.70;46.80
75500;DHT22;64076;51.466;7.260;2023-08-30T14:56:38;26.70;46.80
75500;DHT22;64076;51.466;7.260;2023-08-30T14:59:03;26.60;46.70
75500;DHT22;64076;51.466;7.260;2023-08-30T15:01:29;26.60;46.80
75500;DHT22;64076;51.466;7.260;2023-08-30T15:03:55;26.60;46.70
75500;DHT22;64076;51.466;7.260;2023-08-30T15:06:20;26.60;46.80
75500;DHT22;64076;51.466;7.260;2023-08-30T15:08:46;26.60;46.80
75500;DHT22;64076;51.466;7.260;2023-08-30T15:11:11;26.60;46.80
75500;DHT22;64076;51.466;7.260;2023-08-30T15:13:37;26.60;46.80
75500;DHT22;64076;51.466;7.260;2023-08-30T15:16:04;26.60;46.80
75500;DHT22;64076;51.466;7.260;2023-08-30T15:18:29;26.60;46.80
75500;DHT22;64076;51.466;7.260;2023-08-30T15:20:55;26.60;46.80
75500;DHT22;64076;51.466;7.260;2023-08-30T15:23:21;26.60;46.70
75500;DHT22;64076;51.466;7.260;2023-08-30T15:25:47;26.60;46.70
75500;DHT22;64076;51.466;7.260;2023-08-30T15:28:14;26.50;46.70
75500;DHT22;64076;51.466;7.260;2023-08-30T15:30:45;26.50;46.60
75500;DHT22;64076;51.466;7.260;2023-08-30T15:33:11;26.50;46.60
75500;DHT22;64076;51.466;7.260;2023-08-30T15:35:39;26.50;46.60
75500;DHT22;64076;51.466;7.260;2023-08-30T15:38:05;26.50;46.60
75500;DHT22;64076;51.466;7.260;2023-08-30T15:40:31;26.50;46.60
75500;DHT22;64076;51.466;7.260;2023-08-30T15:42:58;26.50;46.60
75500;DHT22;64076;51.466;7.260;2023-08-30T15:45:24;26.50;46.60
75500;DHT22;64076;51.466;7.260;2023-08-30T15:47:49;26.50;46.70
75500;DHT22;64076;51.466;7.260;2023-08-30T15:50:15;26.50;46.70
75500;DHT22;64076;51.466;7.260;2023-08-30T15:52:40;26.50;46.70